Time;durP1;ratioP1;P1;durP2;ratioP2;P2;SDS_P1;SDS_P2;PMS_P1;PMS_P2;Temp;Humidity;BMP_temperature;BMP_pressure;BME280_temperature;BME280_humidity;BME280_pressure;Samples;Min_cycle;Max_cycle;Signal;HPM_P1;HPM_P2
2024/01/03 00:00:54;;;;;;;0.60;0.50;;;;;;;11.46;71.92;95306.16;4931565;28;20284;-84
2024/01/03 00:03:21;;;;;;;1.40;0.52;;;;;;;11.63;70.11;95316.69;4893807;28;20253;-81
2024/01/03 00:05:47;;;;;;;2.50;0.60;;;;;;;11.44;70.95;95312.41;4891780;28;20265;-81
2024/01/03 00:08:16;;;;;;;1.15;1.05;;;;;;;11.60;71.24;95312.84;4893947;28;20453;-81
2024/01/03 00:10:49;;;;;;;1.38;0.63;;;;;;;11.59;70.19;95308.69;4912106;28;20229;-83
2024/01/03 00:13:33;;;;;;;1.15;0.50;;;;;;;11.54;70.93;95311.41;4907873;28;20198;-81
2024/01/03 00:15:58;;;;;;;1.10;0.63;;;;;;;11.31;71.66;95305.44;4923585;28;20190;-85
2024/01/03 00:18:38;;;;;;;3.95;0.93;;;;;;;11.34;72.09;95304.81;4923704;28;20217;-83
2024/01/03 00:21:10;;;;;;;1.05;0.45;;;;;;;11.35;72.02;95303.00;4877754;28;20343;-82
2024/01/03 00:23:48;;;;;;;0.93;0.60;;;;;;;11.14;72.92;95310.47;4911755;28;20426;-85
2024/01/03 00:26:14;;;;;;;2.25;0.50;;;;;;;10.81;73.67;95298.41;4891410;28;20665;-82
2024/01/03 00:28:40;;;;;;;2.13;0.47;;;;;;;11.10;73.28;95299.13;4921989;28;20099;-81
2024/01/03 00:31:06;;;;;;;1.48;0.40;;;;;;;11.24;72.54;95305.84;4904276;28;20288;-83
2024/01/03 00:33:34;;;;;;;1.15;0.40;;;;;;;10.84;73.91;95297.06;4920457;28;20246;-80
2024/01/03 00:35:59;;;;;;;2.63;0.77;;;;;;;11.11;72.84;95300.66;4907639;28;20272;-82
2024/01/03 00:38:25;;;;;;;2.67;0.60;;;;;;;11.21;72.13;95300.44;4889097;28;20167;-81
2024/01/03 00:40:57;;;;;;;2.30;0.55;;;;;;;11.44;71.89;95307.19;4886804;28;20198;-81
2024/01/03 00:43:23;;;;;;;4.32;1.27;;;;;;;11.26;72.47;95302.94;4900552;28;20608;-81
2024/01/03 00:45:49;;;;;;;1.65;0.50;;;;;;;11.41;71.47;95297.41;4891013;28;20160;-81
2024/01/03 00:48:15;;;;;;;1.27;0.73;;;;;;;11.24;72.53;95305.06;4873843;28;20197;-81
2024/01/03 00:50:40;;;;;;;1.23;0.90;;;;;;;11.28;71.86;95305.25;4890052;28;20272;-81
2024/01/03 00:53:06;;;;;;;2.63;0.82;;;;;;;11.06;73.64;95304.91;4906604;28;20199;-83
2024/01/03 00:55:32;;;;;;;1.90;0.90;;;;;;;11.19;73.06;95313.78;4910579;28;20042;-79
2024/01/03 00:57:57;;;;;;;3.97;1.25;;;;;;;11.05;73.18;95318.22;4908134;28;20612;-83
2024/01/03 01:00:23;;;;;;;3.22;0.90;;;;;;;11.27;72.87;95322.72;4890561;28;20273;-82
2024/01/03 01:02:48;;;;;;;4.82;1.05;;;;;;;11.48;71.64;95319.66;4921829;28;21241;-80
2024/01/03 01:05:14;;;;;;;4.10;1.30;;;;;;;11.40;71.81;95329.72;4919625;28;20186;-80
2024/01/03 01:07:39;;;;;;;5.03;1.27;;;;;;;11.18;72.93;95327.84;4907521;28;20095;-81
2024/01/03 01:10:05;;;;;;;5.03;1.55;;;;;;;11.44;72.51;95329.91;4919808;28;20172;-82
2024/01/03 01:12:30;;;;;;;5.07;1.02;;;;;;;11.41;73.14;95328.66;4878320;28;20294;-84
2024/01/03 01:14:58;;;;;;;6.70;1.63;;;;;;;11.54;72.53;95331.50;4904148;28;20223;-83
2024/01/03 01:17:25;;;;;;;6.18;2.03;;;;;;;11.79;71.19;95311.91;4890345;28;20133;-81
2024/01/03 01:19:51;;;;;;;2.53;0.95;;;;;;;11.81;70.99;95323.56;4892204;28;20285;-85
2024/01/03 01:22:16;;;;;;;4.00;1.20;;;;;;;11.51;72.36;95312.00;4887545;28;20221;-81
2024/01/03 01:24:42;;;;;;;4.32;1.20;;;;;;;11.69;71.63;95325.19;4894079;28;20179;-81
2024/01/03 01:27:07;;;;;;;6.60;1.65;;;;;;;11.37;73.31;95319.88;4895545;28;20194;-83
2024/01/03 01:29:32;;;;;;;5.40;1.90;;;;;;;11.19;74.39;95323.41;4911691;28;20543;-85
2024/01/03 01:31:58;;;;;;;5.78;1.33;;;;;;;11.50;72.77;95318.31;4929104;28;20217;-82
2024/01/03 01:34:23;;;;;;;2.70;1.10;;;;;;;11.55;73.27;95320.00;4910223;28;20207;-81
2024/01/03 01:36:48;;;;;;;4.90;1.20;;;;;;;11.42;73.11;95306.75;4880611;28;20252;-82
2024/01/03 01:39:14;;;;;;;7.55;2.55;;;;;;;11.17;74.75;95333.34;4892870;28;20217;-83
2024/01/03 01:41:39;;;;;;;6.55;1.55;;;;;;;11.39;73.40;95325.56;4926578;28;20544;-84
2024/01/03 01:44:05;;;;;;;6.25;1.20;;;;;;;11.66;72.61;95341.41;4877670;28;20526;-84
2024/01/03 01:46:34;;;;;;;6.70;1.40;;;;;;;11.77;72.19;95347.91;4896033;28;20205;-81
2024/01/03 01:49:00;;;;;;;8.45;1.40;;;;;;;11.67;72.24;95343.72;4893665;28;20568;-83
2024/01/03 01:51:25;;;;;;;5.43;1.73;;;;;;;11.73;72.56;95347.75;4910512;28;20206;-82
2024/01/03 01:53:50;;;;;;;6.30;1.45;;;;;;;11.84;71.89;95339.69;4908248;28;20146;-81
2024/01/03 01:56:18;;;;;;;8.73;2.00;;;;;;;12.00;71.45;95343.50;4909908;28;20656;-83
2024/01/03 01:58:44;;;;;;;4.97;1.52;;;;;;;11.79;72.23;95336.13;4912016;28;20201;-82
2024/01/03 02:01:09;;;;;;;4.80;1.27;;;;;;;11.75;71.49;95340.38;4891997;28;20167;-83
2024/01/03 02:03:36;;;;;;;9.75;2.65;;;;;;;11.69;72.28;95333.00;4899492;28;20258;-82
2024/01/03 02:06:02;;;;;;;6.85;1.40;;;;;;;11.69;72.28;95317.38;4877460;28;20226;-83
2024/01/03 02:08:27;;;;;;;5.40;1.95;;;;;;;11.83;72.35;95325.88;4878608;28;20200;-81
2024/01/03 02:10:53;;;;;;;6.40;1.33;;;;;;;12.01;71.37;95339.81;4884991;28;20695;-85
2024/01/03 02:13:18;;;;;;;5.25;2.53;;;;;;;11.73;72.16;95326.88;4878596;28;20524;-83
2024/01/03 02:15:43;;;;;;;2.95;1.20;;;;;;;11.73;71.69;95318.31;4928206;28;20129;-81
2024/01/03 02:18:09;;;;;;;3.85;1.80;;;;;;;11.74;72.16;95302.38;4893826;28;20201;-81
2024/01/03 02:20:35;;;;;;;7.15;1.48;;;;;;;11.79;71.89;95304.09;4905912;28;20368;-83
2024/01/03 02:23:03;;;;;;;5.70;2.25;;;;;;;11.68;71.97;95384.34;4879569;28;20383;-82
2024/01/03 02:25:28;;;;;;;1.27;0.73;;;;;;;11.30;70.17;95370.88;4894377;28;20299;-83
2024/01/03 02:27:54;;;;;;;2.70;0.95;;;;;;;10.54;69.37;95376.47;4928664;28;20193;-83
2024/01/03 02:30:19;;;;;;;3.88;0.47;;;;;;;10.67;68.87;95386.91;4930808;28;20264;-83
2024/01/03 02:32:45;;;;;;;2.75;0.55;;;;;;;10.74;69.56;95389.13;4883948;28;20277;-83
2024/01/03 02:35:10;;;;;;;4.43;0.60;;;;;;;10.46;70.28;95350.06;4908089;28;20215;-82
2024/01/03 02:37:35;;;;;;;1.73;0.40;;;;;;;10.59;70.33;95374.56;4880445;28;20210;-82
2024/01/03 02:40:01;;;;;;;1.73;0.70;;;;;;;10.67;70.79;95407.72;4906441;28;20053;-83
2024/01/03 02:42:26;;;;;;;2.90;0.50;;;;;;;10.62;70.92;95387.00;4898440;28;20385;-82
2024/01/03 02:44:51;;;;;;;6.03;1.00;;;;;;;10.58;72.42;95382.66;4943437;28;20332;-84
2024/01/03 02:47:17;;;;;;;4.35;0.90;;;;;;;10.92;71.23;95377.09;4912077;28;20186;-82
2024/01/03 02:49:42;;;;;;;4.80;0.90;;;;;;;10.99;71.94;95374.09;4903649;28;20042;-84
2024/01/03 02:52:07;;;;;;;4.57;0.90;;;;;;;11.24;72.15;95380.59;4910311;28;20754;-83
2024/01/03 02:54:33;;;;;;;7.80;1.30;;;;;;;11.32;70.96;95385.13;4892902;28;20312;-83
2024/01/03 02:56:58;;;;;;;8.98;1.40;;;;;;;11.42;71.35;95391.97;4891892;28;20608;-85
2024/01/03 02:59:26;;;;;;;10.90;1.65;;;;;;;11.40;71.33;95371.41;4892925;28;20661;-83
2024/01/03 03:01:52;;;;;;;4.20;1.30;;;;;;;11.40;71.72;95371.41;4894281;28;20691;-82
2024/01/03 03:04:17;;;;;;;5.68;1.60;;;;;;;11.44;71.42;95374.97;4876965;28;20547;-83
2024/01/03 03:06:42;;;;;;;3.97;1.10;;;;;;;11.47;71.35;95383.28;4891719;28;20210;-82
2024/01/03 03:09:08;;;;;;;5.60;1.27;;;;;;;11.58;71.39;95384.59;4879907;28;20211;-86
2024/01/03 03:11:33;;;;;;;6.15;1.52;;;;;;;11.52;72.09;95380.56;4896764;28;20189;-83
2024/01/03 03:13:58;;;;;;;8.23;1.05;;;;;;;11.58;71.49;95372.34;4894630;28;20193;-82
2024/01/03 03:16:25;;;;;;;6.95;1.40;;;;;;;11.18;72.56;95358.34;4880759;28;20202;-82
2024/01/03 03:18:51;;;;;;;5.75;1.10;;;;;;;11.42;71.53;95364.06;4895018;28;20264;-83
2024/01/03 03:21:16;;;;;;;4.57;1.30;;;;;;;11.39;71.28;95376.91;4893953;28;20194;-83
2024/01/03 03:23:41;;;;;;;8.82;1.80;;;;;;;11.30;72.54;95374.22;4893276;28;20286;-85
2024/01/03 03:26:07;;;;;;;4.30;0.93;;;;;;;11.55;71.26;95367.72;4893551;28;20190;-82
2024/01/03 03:28:32;;;;;;;6.10;1.10;;;;;;;11.46;72.18;95359.03;4909983;28;20320;-84
2024/01/03 03:30:57;;;;;;;7.30;1.17;;;;;;;11.19;72.69;95368.47;4892054;28;20632;-81
2024/01/03 03:33:23;;;;;;;6.15;1.30;;;;;;;11.25;72.72;95369.88;4895969;28;20288;-85
2024/01/03 03:35:48;;;;;;;4.80;1.38;;;;;;;11.23;72.84;95376.47;4879670;28;20621;-83
2024/01/03 03:38:13;;;;;;;4.70;1.00;;;;;;;11.65;71.91;95379.72;4897219;28;20037;-83
2024/01/03 03:40:39;;;;;;;8.25;1.35;;;;;;;11.61;71.00;95381.38;4917940;28;20691;-81
2024/01/03 03:43:04;;;;;;;7.75;2.67;;;;;;;11.47;71.52;95383.28;4895625;28;20696;-81
2024/01/03 03:45:31;;;;;;;6.05;1.13;;;;;;;11.38;72.39;95386.56;4909179;28;20600;-81
2024/01/03 03:47:56;;;;;;;3.88;1.23;;;;;;;11.58;71.32;95387.19;4894164;28;20208;-82
2024/01/03 03:50:22;;;;;;;5.10;1.00;;;;;;;11.60;71.72;95390.25;4911080;28;20277;-82
2024/01/03 03:52:47;;;;;;;7.20;1.40;;;;;;;11.64;70.93;95390.47;4910230;28;20190;-80
2024/01/03 03:55:13;;;;;;;8.45;1.20;;;;;;;11.63;71.97;95392.28;4892552;28;20681;-83
2024/01/03 03:57:39;;;;;;;6.28;1.38;;;;;;;11.52;71.80;95386.53;4893145;28;20037;-81
2024/01/03 04:00:05;;;;;;;9.98;1.90;;;;;;;11.44;71.07;95380.16;4914136;28;20030;-81
2024/01/03 04:02:30;;;;;;;6.70;1.40;;;;;;;11.41;71.60;95377.38;4877042;28;20163;-81
2024/01/03 04:04:56;;;;;;;4.95;1.38;;;;;;;11.62;70.92;95388.16;4926535;28;20218;-82
2024/01/03 04:07:21;;;;;;;4.80;1.02;;;;;;;11.49;71.80;95399.38;4876045;28;20217;-83
2024/01/03 04:09:47;;;;;;;6.50;1.13;;;;;;;11.52;71.15;95391.00;4893735;28;20494;-82
2024/01/03 04:12:12;;;;;;;5.20;0.90;;;;;;;11.47;70.66;95383.28;4891622;28;20230;-82
2024/01/03 04:14:37;;;;;;;5.63;1.20;;;;;;;11.19;70.99;95397.13;4907562;28;20217;-80
2024/01/03 04:17:03;;;;;;;8.73;1.85;;;;;;;11.26;70.68;95386.31;4891777;28;20210;-82
2024/01/03 04:19:30;;;;;;;9.73;1.65;;;;;;;10.92;70.97;95363.31;4877120;28;20409;-82
2024/01/03 04:21:57;;;;;;;3.97;1.00;;;;;;;11.25;70.21;95392.56;4890741;28;20209;-80
2024/01/03 04:24:22;;;;;;;7.72;1.55;;;;;;;11.33;69.71;95381.47;4891179;28;20261;-83
2024/01/03 04:26:48;;;;;;;8.73;2.97;;;;;;;10.84;71.84;95394.13;4885444;28;20778;-80
2024/01/03 04:29:13;;;;;;;8.18;1.30;;;;;;;11.13;70.54;95392.31;4930685;28;20735;-81
2024/01/03 04:31:39;;;;;;;7.88;1.10;;;;;;;10.86;71.90;95399.06;4876871;28;20552;-82
2024/01/03 04:34:04;;;;;;;11.45;2.65;;;;;;;10.97;71.08;95384.78;4892278;28;20292;-81
2024/01/03 04:36:29;;;;;;;8.35;1.80;;;;;;;10.93;72.10;95393.47;4890077;28;20026;-80
2024/01/03 04:38:55;;;;;;;11.27;2.08;;;;;;;11.03;71.39;95393.28;4906319;28;20189;-80
2024/01/03 04:41:20;;;;;;;8.48;1.35;;;;;;;11.27;70.50;95403.47;4906465;28;20030;-81
2024/01/03 04:43:45;;;;;;;8.48;1.92;;;;;;;11.32;70.54;95405.97;4898874;28;20421;-81
2024/01/03 04:46:11;;;;;;;7.97;1.30;;;;;;;11.28;70.53;95417.28;4891287;28;20268;-83
2024/01/03 04:48:36;;;;;;;9.20;1.60;;;;;;;11.15;71.63;95411.00;4891073;28;20656;-81
2024/01/03 04:51:02;;;;;;;4.78;1.17;;;;;;;10.95;71.72;95418.16;4922964;28;20236;-80
2024/01/03 04:53:27;;;;;;;5.70;1.60;;;;;;;11.11;71.76;95412.66;4881528;28;20296;-80
2024/01/03 04:55:53;;;;;;;5.00;1.45;;;;;;;11.01;71.67;95417.00;4891985;28;20209;-80
2024/01/03 04:58:18;;;;;;;9.00;3.03;;;;;;;11.19;71.31;95417.16;4904049;28;20196;-80
2024/01/03 05:00:44;;;;;;;6.30;1.70;;;;;;;11.51;69.81;95420.72;4907563;28;20333;-80
2024/01/03 05:03:11;;;;;;;6.18;0.90;;;;;;;11.40;70.10;95417.56;4875880;28;20654;-81
2024/01/03 05:05:36;;;;;;;6.97;1.38;;;;;;;11.30;71.21;95418.53;4872528;28;20215;-83
2024/01/03 05:08:02;;;;;;;7.50;1.65;;;;;;;11.50;69.81;95406.13;4908291;28;20164;-82
2024/01/03 05:10:27;;;;;;;10.07;1.30;;;;;;;11.29;70.99;95403.19;4891119;28;20189;-81
2024/01/03 05:12:53;;;;;;;3.25;1.08;;;;;;;11.20;70.57;95421.34;4913484;28;20296;-80
2024/01/03 05:15:18;;;;;;;6.65;1.25;;;;;;;11.14;70.87;95399.84;4889597;28;20205;-81
2024/01/03 05:17:44;;;;;;;4.15;1.17;;;;;;;11.28;71.06;95415.44;4905172;28;20054;-81
2024/01/03 05:20:10;;;;;;;10.50;1.25;;;;;;;11.08;71.35;95408.03;4905777;28;20272;-80
2024/01/03 05:22:35;;;;;;;9.63;1.20;;;;;;;11.14;71.14;95410.25;4907119;28;20373;-82
2024/01/03 05:25:01;;;;;;;8.05;1.45;;;;;;;11.18;71.05;95402.63;4911149;28;20727;-82
2024/01/03 05:27:26;;;;;;;7.18;1.15;;;;;;;11.31;69.99;95412.25;4906413;28;20270;-81
2024/01/03 05:29:52;;;;;;;5.15;1.33;;;;;;;11.36;70.56;95419.19;4906940;28;20251;-82
2024/01/03 05:32:18;;;;;;;7.43;1.27;;;;;;;11.46;69.79;95418.22;4907086;28;20193;-81
2024/01/03 05:34:44;;;;;;;6.25;1.20;;;;;;;11.06;71.13;95429.91;4906563;28;20285;-81
2024/01/03 05:37:10;;;;;;;7.75;1.60;;;;;;;11.18;71.09;95416.41;4923304;28;20186;-79
2024/01/03 05:39:36;;;;;;;7.68;1.35;;;;;;;11.25;70.92;95426.44;4914428;28;21381;-80
2024/01/03 05:42:02;;;;;;;5.40;1.23;;;;;;;11.41;70.47;95419.88;4903316;28;20189;-81
2024/01/03 05:44:53;;;;;;;4.95;0.93;;;;;;;11.53;70.75;95421.97;4925196;28;20308;-79
2024/01/03 05:47:18;;;;;;;5.95;1.15;;;;;;;11.08;70.77;95405.44;4906031;28;20287;-79
2024/01/03 05:49:44;;;;;;;4.60;0.90;;;;;;;11.34;70.38;95423.91;4894824;28;20198;-79
2024/01/03 05:52:09;;;;;;;7.65;1.30;;;;;;;11.15;70.59;95416.22;4874033;28;20274;-81
2024/01/03 05:54:34;;;;;;;5.05;1.15;;;;;;;11.28;70.33;95412.06;4881819;28;20281;-81
2024/01/03 05:57:00;;;;;;;8.10;0.95;;;;;;;11.01;71.15;95411.03;4912904;28;20198;-81
2024/01/03 05:59:26;;;;;;;4.57;1.00;;;;;;;11.16;70.14;95417.78;4920656;28;20117;-80
2024/01/03 06:01:51;;;;;;;5.43;1.10;;;;;;;11.18;70.55;95411.19;4880501;28;20191;-81
2024/01/03 06:04:17;;;;;;;8.02;1.05;;;;;;;11.28;69.68;95415.44;4880160;28;20030;-82
2024/01/03 06:06:42;;;;;;;3.63;0.90;;;;;;;11.35;68.85;95421.03;4904730;28;20335;-83
2024/01/03 06:09:08;;;;;;;4.65;1.45;;;;;;;11.38;68.89;95428.25;4876816;28;20276;-81
2024/01/03 06:11:33;;;;;;;5.30;0.70;;;;;;;11.15;69.84;95417.00;4899497;28;20205;-83
2024/01/03 06:13:59;;;;;;;4.80;0.85;;;;;;;11.05;70.27;95431.00;4901191;28;20032;-80
2024/01/03 06:16:24;;;;;;;3.20;0.70;;;;;;;11.31;68.70;95416.69;4889450;28;20390;-80
2024/01/03 06:18:50;;;;;;;4.75;1.30;;;;;;;11.16;70.21;95425.59;4915294;28;20229;-81
2024/01/03 06:21:15;;;;;;;4.82;0.82;;;;;;;11.13;70.50;95426.94;4910461;28;20170;-86
2024/01/03 06:23:40;;;;;;;4.65;0.65;;;;;;;11.16;69.90;95423.75;4928426;28;20307;-80
2024/01/03 06:26:06;;;;;;;8.00;1.10;;;;;;;11.16;70.08;95418.53;4910407;28;20290;-82
2024/01/03 06:28:32;;;;;;;11.07;1.50;;;;;;;10.90;71.08;95402.66;4926045;28;20033;-81
2024/01/03 06:30:57;;;;;;;5.85;1.10;;;;;;;11.08;70.82;95415.84;4913226;28;20505;-81
2024/01/03 06:33:22;;;;;;;6.32;1.00;;;;;;;11.31;70.82;95409.66;4914540;28;20034;-80
2024/01/03 06:35:48;;;;;;;5.13;0.93;;;;;;;11.03;71.24;95427.88;4908787;28;20726;-81
2024/01/03 06:38:13;;;;;;;6.80;1.60;;;;;;;10.95;71.91;95397.34;4938760;28;20262;-82
2024/01/03 06:40:38;;;;;;;3.80;1.13;;;;;;;11.19;70.83;95404.94;4917242;28;20076;-82
2024/01/03 06:43:04;;;;;;;6.78;1.58;;;;;;;11.08;72.37;95418.44;4918146;28;20540;-81
2024/01/03 06:45:29;;;;;;;4.22;1.23;;;;;;;11.00;72.22;95399.84;4908939;28;21670;-81
2024/01/03 06:47:55;;;;;;;2.53;1.17;;;;;;;11.21;71.38;95389.03;4910102;28;20658;-82
2024/01/03 06:50:20;;;;;;;3.17;0.65;;;;;;;11.16;71.62;95381.31;4894407;28;20224;-82
2024/01/03 06:52:45;;;;;;;3.25;1.08;;;;;;;11.24;70.69;95383.22;4933208;28;20674;-83
2024/01/03 06:55:11;;;;;;;3.88;1.52;;;;;;;11.00;72.42;95389.44;4899180;28;20222;-83
2024/01/03 06:57:36;;;;;;;3.67;0.75;;;;;;;10.97;73.20;95391.84;4909489;28;20241;-79
2024/01/03 07:00:02;;;;;;;3.33;0.95;;;;;;;11.19;72.33;95393.72;4893208;28;20277;-82
2024/01/03 07:02:27;;;;;;;5.05;0.88;;;;;;;11.13;72.98;95376.69;4921151;28;20280;-81
2024/01/03 07:04:53;;;;;;;5.85;1.10;;;;;;;11.34;71.57;95387.44;4907211;28;20195;-82
2024/01/03 07:07:18;;;;;;;2.00;0.77;;;;;;;11.05;73.18;95388.53;4922892;28;20628;-82
2024/01/03 07:09:44;;;;;;;3.53;1.25;;;;;;;11.18;73.06;95395.56;4883327;28;20701;-81
2024/01/03 07:12:09;;;;;;;3.53;1.30;;;;;;;11.40;72.03;95396.72;4900237;28;20308;-81
2024/01/03 07:14:35;;;;;;;2.22;0.95;;;;;;;11.41;72.25;95408.66;4909448;28;20099;-81
2024/01/03 07:17:00;;;;;;;3.53;1.27;;;;;;;11.65;70.82;95405.78;4946991;28;20293;-81
2024/01/03 07:19:25;;;;;;;4.70;1.50;;;;;;;11.51;72.12;95405.06;4922542;28;20193;-84
2024/01/03 07:21:51;;;;;;;5.35;1.33;;;;;;;11.43;72.57;95409.91;4900031;28;20447;-83
2024/01/03 07:24:16;;;;;;;5.55;1.30;;;;;;;11.58;71.86;95408.03;4904930;28;20348;-82
2024/01/03 07:26:41;;;;;;;6.78;1.40;;;;;;;11.46;72.75;95400.72;4894587;28;20168;-81
2024/01/03 07:29:07;;;;;;;5.30;1.80;;;;;;;11.38;73.30;95423.06;4910775;28;20026;-86
2024/01/03 07:31:32;;;;;;;3.92;1.15;;;;;;;11.38;72.43;95419.69;4911084;28;20167;-84
2024/01/03 07:33:58;;;;;;;3.90;0.95;;;;;;;11.35;72.78;95420.25;4884231;28;20364;-83
2024/01/03 07:36:23;;;;;;;2.58;0.75;;;;;;;11.55;72.14;95412.03;4902206;28;20175;-84
2024/01/03 07:38:48;;;;;;;5.25;0.80;;;;;;;11.75;72.07;95415.25;4904139;28;20186;-83
2024/01/03 07:41:19;;;;;;;3.50;1.02;;;;;;;11.59;72.55;95401.78;4908904;28;20537;-84
2024/01/03 07:43:44;;;;;;;3.42;0.85;;;;;;;11.35;72.52;95400.19;4903906;28;20762;-84
2024/01/03 07:46:10;;;;;;;1.48;0.65;;;;;;;11.40;72.48;95401.91;4898245;28;20022;-82
2024/01/03 07:48:35;;;;;;;2.05;0.60;;;;;;;11.48;72.22;95387.41;4896751;28;20294;-82
2024/01/03 07:51:00;;;;;;;5.43;0.73;;;;;;;11.48;72.56;95406.44;4909235;28;20206;-82
2024/01/03 07:53:26;;;;;;;4.15;0.88;;;;;;;11.23;73.30;95384.28;4893395;28;20202;-83
2024/01/03 07:55:53;;;;;;;4.15;0.73;;;;;;;11.29;74.17;95400.56;4911599;28;20363;-84
2024/01/03 07:58:19;;;;;;;4.40;0.70;;;;;;;11.08;73.73;95398.38;4904780;28;20171;-83
2024/01/03 08:00:44;;;;;;;4.18;1.13;;;;;;;11.37;72.71;95394.69;4877074;28;20292;-83
2024/01/03 08:03:09;;;;;;;2.20;0.80;;;;;;;11.34;73.76;95397.88;4930504;28;20201;-82
2024/01/03 08:05:35;;;;;;;3.70;1.02;;;;;;;11.62;72.73;95396.75;4889779;28;20197;-85
2024/01/03 08:08:00;;;;;;;2.90;0.95;;;;;;;11.56;72.28;95386.72;4895276;28;20037;-82
2024/01/03 08:10:26;;;;;;;2.08;0.68;;;;;;;11.46;72.59;95376.50;4930166;28;20210;-83
2024/01/03 08:12:51;;;;;;;3.63;1.00;;;;;;;11.76;71.09;95394.09;4897970;28;20163;-83
2024/01/03 08:15:16;;;;;;;4.00;0.90;;;;;;;11.84;70.75;95389.22;4892533;28;20237;-82
2024/01/03 08:17:42;;;;;;;3.10;0.90;;;;;;;11.43;72.46;95372.69;4899456;28;20193;-82
2024/01/03 08:20:09;;;;;;;5.18;1.10;;;;;;;11.43;73.17;95373.44;4911033;28;20250;-84
2024/01/03 08:22:36;;;;;;;4.18;1.15;;;;;;;11.41;73.46;95354.72;4911162;28;20336;-85
2024/01/03 08:25:02;;;;;;;4.57;1.05;;;;;;;11.18;74.12;95360.94;4914037;28;20294;-81
2024/01/03 08:27:27;;;;;;;7.57;1.40;;;;;;;11.16;74.15;95389.13;4909461;28;20181;-81
2024/01/03 08:29:52;;;;;;;7.50;1.63;;;;;;;11.32;73.71;95387.72;4892641;28;20724;-82
2024/01/03 08:32:18;;;;;;;8.60;1.15;;;;;;;11.60;72.85;95391.06;4905105;28;20042;-82
2024/01/03 08:34:46;;;;;;;3.70;1.02;;;;;;;11.44;73.51;95376.81;4915204;28;20712;-84
2024/01/03 08:37:12;;;;;;;7.15;2.05;;;;;;;11.32;74.30;95397.38;4929794;28;20278;-82
2024/01/03 08:39:37;;;;;;;8.95;1.60;;;;;;;11.50;73.94;95385.28;4922739;28;20702;-84
2024/01/03 08:42:03;;;;;;;6.40;1.48;;;;;;;11.48;73.04;95409.06;4898967;28;20276;-82
2024/01/03 08:44:29;;;;;;;4.80;1.55;;;;;;;11.47;74.14;95407.50;4939185;28;20224;-83
2024/01/03 08:46:54;;;;;;;4.57;1.30;;;;;;;11.55;73.64;95419.03;4922527;28;20208;-82
2024/01/03 08:49:19;;;;;;;4.47;1.17;;;;;;;11.47;74.02;95422.38;4912827;28;20294;-82
2024/01/03 08:51:48;;;;;;;4.97;1.25;;;;;;;11.66;72.57;95446.44;4944127;28;20188;-85
2024/01/03 08:54:14;;;;;;;8.45;1.38;;;;;;;11.51;73.20;95437.09;4891646;28;20253;-84
2024/01/03 08:56:40;;;;;;;5.05;1.05;;;;;;;11.63;73.28;95457.47;4915205;28;20192;-82
2024/01/03 08:59:05;;;;;;;5.53;1.10;;;;;;;11.42;73.46;95421.41;4921660;28;20197;-87
2024/01/03 09:01:34;;;;;;;3.45;1.00;;;;;;;11.14;73.29;95445.94;4902985;28;20627;-81
2024/01/03 09:04:00;;;;;;;3.40;0.90;;;;;;;11.25;72.26;95440.22;4907676;28;20205;-83
2024/01/03 09:06:26;;;;;;;2.15;1.08;;;;;;;11.24;72.58;95462.16;4924702;28;20198;-83
2024/01/03 09:08:52;;;;;;;2.58;0.50;;;;;;;11.10;71.86;95450.94;4918415;28;20204;-83
2024/01/03 09:11:28;;;;;;;2.35;0.40;;;;;;;11.34;71.75;95453.34;4923837;28;20200;-83
2024/01/03 09:13:54;;;;;;;0.80;0.73;;;;;;;11.09;72.19;95459.03;4935063;28;20030;-82
2024/01/03 09:16:26;;;;;;;0.95;0.30;;;;;;;11.13;71.67;95441.78;4923449;28;20280;-84
2024/01/03 09:18:51;;;;;;;1.48;0.47;;;;;;;11.34;70.48;95442.91;4913139;28;20731;-83
2024/01/03 09:21:17;;;;;;;0.95;0.30;;;;;;;11.14;71.28;95457.13;4935903;28;20283;-82
2024/01/03 09:23:42;;;;;;;0.80;0.20;;;;;;;11.20;70.96;95455.19;4894244;28;20226;-83
2024/01/03 09:26:10;;;;;;;1.13;0.20;;;;;;;11.22;71.54;95442.66;4904915;28;20343;-83
2024/01/03 09:28:37;;;;;;;1.63;0.20;;;;;;;11.05;70.17;95457.03;4919680;28;20280;-85
2024/01/03 09:31:03;;;;;;;2.53;0.38;;;;;;;11.18;70.37;95468.50;4897823;28;20163;-82
2024/01/03 09:33:28;;;;;;;0.50;0.30;;;;;;;11.27;70.30;95486.06;4902821;28;20206;-83
2024/01/03 09:35:54;;;;;;;1.25;0.20;;;;;;;11.23;70.60;95480.69;4916145;28;20185;-85
2024/01/03 09:38:19;;;;;;;0.65;0.22;;;;;;;11.18;70.41;95488.59;4938116;28;20442;-83
2024/01/03 09:40:45;;;;;;;0.28;0.20;;;;;;;11.09;71.37;95492.91;4896488;28;20780;-86
2024/01/03 09:43:11;;;;;;;0.90;0.22;;;;;;;11.12;70.96;95487.13;4906803;28;20188;-81
2024/01/03 09:45:37;;;;;;;2.60;0.30;;;;;;;11.24;70.33;95495.22;4910510;28;20033;-83
2024/01/03 09:48:04;;;;;;;1.95;0.30;;;;;;;11.31;70.33;95493.03;4917442;28;20708;-84
2024/01/03 09:50:29;;;;;;;0.90;0.30;;;;;;;11.28;70.88;95495.44;4899573;28;20272;-82
2024/01/03 09:52:56;;;;;;;1.02;0.20;;;;;;;11.34;71.42;95487.22;4917510;28;20633;-81
2024/01/03 09:55:21;;;;;;;1.20;0.28;;;;;;;11.44;70.74;95487.03;4952006;28;20306;-83
2024/01/03 09:57:47;;;;;;;2.15;0.82;;;;;;;11.47;71.37;95495.34;4933747;28;20126;-81
2024/01/03 10:00:13;;;;;;;2.55;0.32;;;;;;;11.58;71.96;95494.84;4909192;28;20609;-84
2024/01/03 10:02:38;;;;;;;1.13;0.55;;;;;;;11.61;72.63;95506.50;4907967;28;20187;-81
2024/01/03 10:05:04;;;;;;;2.55;0.50;;;;;;;11.77;71.13;95494.72;4911336;28;20284;-82
2024/01/03 10:07:34;;;;;;;3.20;0.70;;;;;;;11.67;72.35;95499.34;4925833;28;20026;-81
2024/01/03 10:09:59;;;;;;;7.88;2.25;;;;;;;11.65;71.71;95497.03;4934863;28;20096;-80
2024/01/03 10:12:29;;;;;;;2.42;1.10;;;;;;;11.76;71.83;95501.00;4903083;28;20021;-79
2024/01/03 10:14:54;;;;;;;2.65;0.75;;;;;;;11.95;71.23;95494.91;4909083;28;20738;-80
2024/01/03 10:17:20;;;;;;;60.33;10.57;;;;;;;12.02;72.02;95502.31;4908356;28;20184;-82
2024/01/03 10:19:46;;;;;;;6.95;1.13;;;;;;;12.25;71.82;95503.09;4920037;28;20608;-81
2024/01/03 10:22:11;;;;;;;5.10;0.93;;;;;;;12.33;71.30;95499.78;4896435;28;20367;-81
2024/01/03 10:24:43;;;;;;;3.22;0.70;;;;;;;12.32;70.27;95504.25;4898676;28;20084;-81
2024/01/03 10:27:09;;;;;;;4.03;1.05;;;;;;;12.29;71.20;95522.34;4925844;28;20223;-81
2024/01/03 10:29:36;;;;;;;3.05;1.52;;;;;;;12.44;69.80;95521.19;4924205;28;20138;-81
2024/01/03 10:32:03;;;;;;;7.57;2.00;;;;;;;12.30;70.81;95522.06;4921542;28;20112;-81
2024/01/03 10:34:28;;;;;;;4.35;1.00;;;;;;;12.33;70.54;95516.22;4914636;28;20816;-79
2024/01/03 10:36:54;;;;;;;6.97;1.10;;;;;;;12.45;69.85;95523.50;4903610;28;20206;-81
2024/01/03 10:39:19;;;;;;;4.80;1.10;;;;;;;11.93;71.95;95508.22;4917523;28;20045;-82
2024/01/03 10:41:46;;;;;;;5.75;1.13;;;;;;;12.36;70.85;95509.66;4962474;28;20287;-79
2024/01/03 10:44:17;;;;;;;4.30;1.02;;;;;;;12.35;71.82;95510.69;4919195;28;20185;-80
2024/01/03 10:46:47;;;;;;;7.57;1.25;;;;;;;12.49;70.82;95508.81;4909576;28;20234;-80
2024/01/03 10:49:12;;;;;;;5.18;1.40;;;;;;;12.45;70.17;95497.41;4907729;28;20689;-81
2024/01/03 10:51:43;;;;;;;8.77;1.75;;;;;;;12.49;69.86;95506.22;4917065;28;20324;-80
2024/01/03 10:54:15;;;;;;;11.23;2.92;;;;;;;12.54;70.22;95490.44;4892758;28;20908;-80
2024/01/03 10:56:48;;;;;;;6.53;1.67;;;;;;;12.45;70.45;95497.41;4925805;28;20628;-80
2024/01/03 10:59:14;;;;;;;5.47;1.20;;;;;;;12.42;70.66;95494.63;4917640;28;20536;-81
2024/01/03 11:01:51;;;;;;;4.85;1.00;;;;;;;12.50;69.87;95505.13;4907961;28;20022;-79
2024/01/03 11:04:35;;;;;;;6.65;1.35;;;;;;;12.39;70.54;95513.50;4902589;28;20266;-79
2024/01/03 11:07:24;;;;;;;3.47;0.82;;;;;;;11.97;71.09;95519.59;4948161;28;20037;-82
2024/01/03 11:09:50;;;;;;;3.30;0.80;;;;;;;11.61;71.14;95538.56;4883059;28;20022;-81
2024/01/03 11:12:15;;;;;;;2.47;0.40;;;;;;;11.55;70.28;95529.31;4909794;28;20212;-80
2024/01/03 11:14:41;;;;;;;2.15;0.40;;;;;;;11.78;69.67;95492.88;4926138;28;20829;-82
2024/01/03 11:17:09;;;;;;;2.33;0.50;;;;;;;11.68;69.27;95491.25;4922934;28;20179;-82
2024/01/03 11:19:35;;;;;;;2.28;1.10;;;;;;;11.68;69.59;95514.72;4901321;28;20064;-83
2024/01/03 11:22:03;;;;;;;4.32;0.60;;;;;;;11.66;69.62;95514.22;4945514;28;20305;-81
2024/01/03 11:24:28;;;;;;;2.88;0.95;;;;;;;11.83;69.60;95518.09;4938266;28;20091;-81
2024/01/03 11:26:56;;;;;;;3.85;0.60;;;;;;;11.64;70.21;95505.94;4936276;28;20034;-81
2024/01/03 11:29:41;;;;;;;3.15;0.77;;;;;;;11.75;70.15;95516.91;4939802;28;20298;-80